createdAt,value
2017-03-25T00:00:37.578Z,0
2017-03-25T00:01:37.561Z,0
2017-03-25T00:02:37.580Z,0
2017-03-25T00:03:37.521Z,0
2017-03-25T00:04:37.193Z,0
2017-03-25T00:05:37.484Z,0
2017-03-25T00:06:37.160Z,0
2017-03-25T00:07:37.189Z,0
2017-03-25T00:08:37.123Z,0
2017-03-25T00:09:37.414Z,0
2017-03-25T00:10:37.406Z,0
2017-03-25T00:11:37.387Z,0
2017-03-25T00:12:37.052Z,0
2017-03-25T00:13:37.350Z,0
2017-03-25T00:14:37.335Z,0
2017-03-25T00:15:36.995Z,0
2017-03-25T00:16:37.290Z,0
2017-03-25T00:17:37.274Z,0
2017-03-25T00:18:37.258Z,0
2017-03-25T00:19:37.243Z,0
2017-03-25T00:20:36.911Z,0
2017-03-25T00:21:37.201Z,0
2017-03-25T00:22:37.189Z,0
2017-03-25T00:23:37.175Z,0
2017-03-25T00:24:37.152Z,0
2017-03-25T00:25:37.136Z,0
2017-03-25T00:26:37.114Z,0
2017-03-25T00:27:36.795Z,0
2017-03-25T00:28:37.080Z,0
2017-03-25T00:29:37.099Z,0
2017-03-25T00:30:37.095Z,0
2017-03-25T00:31:37.031Z,0
2017-03-25T00:32:37.008Z,0
2017-03-25T00:33:36.996Z,0
2017-03-25T00:34:36.659Z,0
2017-03-25T00:35:36.959Z,0
2017-03-25T00:36:36.628Z,0
2017-03-25T00:37:36.965Z,0
2017-03-25T00:38:36.907Z,0
2017-03-25T00:39:36.626Z,0
2017-03-25T00:40:36.870Z,0
2017-03-25T00:41:36.862Z,0
2017-03-25T00:42:36.830Z,0
2017-03-25T00:43:36.828Z,0
2017-03-25T00:44:36.795Z,0
2017-03-25T00:45:36.778Z,0
2017-03-25T00:46:36.755Z,0
2017-03-25T00:47:36.434Z,0
2017-03-25T00:48:36.728Z,0
2017-03-25T00:49:36.703Z,0
2017-03-25T00:50:36.387Z,0
2017-03-25T00:51:36.677Z,0
2017-03-25T00:52:36.668Z,0
2017-03-25T00:53:36.641Z,0
2017-03-25T00:54:36.308Z,0
2017-03-25T00:55:36.602Z,0
2017-03-25T00:56:36.271Z,0
2017-03-25T00:57:36.561Z,0
2017-03-25T00:58:35.920Z,0
2017-03-25T00:59:36.544Z,0
2017-03-25T01:00:36.513Z,0
2017-03-25T01:01:36.181Z,0
2017-03-25T01:02:36.511Z,0
2017-03-25T01:03:36.498Z,0
2017-03-25T01:04:36.139Z,0
2017-03-25T01:05:36.447Z,0
2017-03-25T01:06:36.406Z,0
2017-03-25T01:07:36.389Z,0
2017-03-25T01:08:36.369Z,0
2017-03-25T01:09:36.354Z,0
2017-03-25T01:10:36.336Z,0
2017-03-25T01:11:35.695Z,0
2017-03-25T01:12:36.300Z,0
2017-03-25T01:13:36.276Z,0
2017-03-25T01:14:36.259Z,0
2017-03-25T01:15:36.289Z,0
2017-03-25T01:16:35.912Z,0
2017-03-25T01:17:36.209Z,0
2017-03-25T01:18:35.872Z,0
2017-03-25T01:19:36.172Z,0
2017-03-25T01:20:35.535Z,0
2017-03-25T01:21:36.129Z,0
2017-03-25T01:22:36.110Z,0
2017-03-25T01:23:36.100Z,0
2017-03-25T01:24:36.116Z,0
2017-03-25T01:25:35.748Z,0
2017-03-25T01:26:36.080Z,0
2017-03-25T01:27:36.024Z,0
2017-03-25T01:28:36.207Z,0
2017-03-25T01:29:35.673Z,0
2017-03-25T01:30:35.968Z,0
2017-03-25T01:31:35.948Z,0
2017-03-25T01:32:35.625Z,0
2017-03-25T01:33:35.602Z,0
2017-03-25T01:34:35.902Z,0
2017-03-25T01:35:35.578Z,0
2017-03-25T01:36:35.869Z,0
2017-03-25T01:37:35.533Z,0
2017-03-25T01:38:35.822Z,0
2017-03-25T01:39:35.808Z,0
2017-03-25T01:40:35.484Z,0
2017-03-25T01:41:35.764Z,0
2017-03-25T01:42:35.500Z,0
2017-03-25T01:43:35.421Z,0
2017-03-25T01:44:35.713Z,0
2017-03-25T01:45:35.703Z,0
2017-03-25T01:46:35.689Z,0
2017-03-25T01:47:35.663Z,0
2017-03-25T01:48:35.683Z,0
2017-03-25T01:49:35.625Z,0
2017-03-25T01:50:35.297Z,0
2017-03-25T01:51:35.584Z,0
2017-03-25T01:52:35.580Z,0
2017-03-25T01:53:35.580Z,0
2017-03-25T01:54:35.223Z,0
2017-03-25T01:55:35.517Z,0
2017-03-25T01:56:35.184Z,0
2017-03-25T01:57:35.483Z,0
2017-03-25T01:58:35.460Z,0
2017-03-25T01:59:35.130Z,0
2017-03-25T02:00:35.418Z,0
2017-03-25T02:01:35.109Z,0
2017-03-25T02:02:35.391Z,0
2017-03-25T02:03:35.364Z,0
2017-03-25T02:04:35.349Z,0
2017-03-25T02:05:35.022Z,0
2017-03-25T02:06:35.312Z,0
2017-03-25T02:07:34.992Z,0
2017-03-25T02:08:34.970Z,0
2017-03-25T02:09:35.255Z,0
2017-03-25T02:10:35.242Z,0
2017-03-25T02:11:35.220Z,0
2017-03-25T02:12:35.214Z,0
2017-03-25T02:13:35.185Z,0
2017-03-25T02:14:35.173Z,0
2017-03-25T02:15:35.153Z,0
2017-03-25T02:16:35.128Z,0
2017-03-25T02:17:35.116Z,0
2017-03-25T02:18:34.786Z,0
2017-03-25T02:19:34.763Z,0
2017-03-25T02:20:35.110Z,0
2017-03-25T02:21:35.045Z,0
2017-03-25T02:22:35.019Z,0
2017-03-25T02:23:35.004Z,0
2017-03-25T02:24:34.986Z,0
2017-03-25T02:25:34.975Z,0
2017-03-25T02:26:34.639Z,0
2017-03-25T02:27:34.616Z,0
2017-03-25T02:28:34.595Z,0
2017-03-25T02:29:34.894Z,0
2017-03-25T02:30:34.873Z,0
2017-03-25T02:31:34.857Z,0
2017-03-25T02:32:34.832Z,0
2017-03-25T02:33:34.818Z,0
2017-03-25T02:34:34.481Z,0
2017-03-25T02:35:34.466Z,0
2017-03-25T02:36:34.758Z,0
2017-03-25T02:37:34.428Z,0
2017-03-25T02:38:34.720Z,0
2017-03-25T02:39:34.707Z,0
2017-03-25T02:40:34.683Z,0
2017-03-25T02:41:34.668Z,0
2017-03-25T02:42:34.654Z,0
2017-03-25T02:43:34.627Z,0
2017-03-25T02:44:34.656Z,0
2017-03-25T02:45:34.276Z,0
2017-03-25T02:46:34.574Z,0
2017-03-25T02:47:34.555Z,0
2017-03-25T02:48:34.535Z,0
2017-03-25T02:49:34.524Z,0
2017-03-25T02:50:34.497Z,0
2017-03-25T02:51:34.477Z,0
2017-03-25T02:52:34.469Z,0
2017-03-25T02:53:34.441Z,0
2017-03-25T02:54:34.423Z,0
2017-03-25T02:55:34.092Z,0
2017-03-25T02:56:34.399Z,0
2017-03-25T02:57:34.371Z,0
2017-03-25T02:58:34.354Z,0
2017-03-25T02:59:34.329Z,0
2017-03-25T03:00:34.312Z,0
2017-03-25T03:01:34.302Z,0
2017-03-25T03:02:34.279Z,0
2017-03-25T03:03:34.264Z,0
2017-03-25T03:04:33.927Z,0
2017-03-25T03:05:33.902Z,0
2017-03-25T03:06:34.193Z,0
2017-03-25T03:07:34.184Z,0
2017-03-25T03:08:34.163Z,0
2017-03-25T03:09:34.141Z,0
2017-03-25T03:10:34.122Z,0
2017-03-25T03:11:34.103Z,0
2017-03-25T03:12:34.081Z,0
2017-03-25T03:13:34.075Z,0
2017-03-25T03:14:34.047Z,0
2017-03-25T03:15:33.710Z,0
2017-03-25T03:16:34.010Z,0
2017-03-25T03:17:33.696Z,0
2017-03-25T03:18:33.967Z,0
2017-03-25T03:19:33.639Z,0
2017-03-25T03:20:33.933Z,0
2017-03-25T03:21:33.919Z,0
2017-03-25T03:22:33.594Z,0
2017-03-25T03:23:33.877Z,0
2017-03-25T03:24:33.856Z,0
2017-03-25T03:25:33.844Z,0
2017-03-25T03:26:33.509Z,0
2017-03-25T03:27:33.802Z,0
2017-03-25T03:28:33.990Z,0
2017-03-25T03:29:33.775Z,0
2017-03-25T03:30:33.743Z,0
2017-03-25T03:31:33.737Z,0
2017-03-25T03:32:33.715Z,0
2017-03-25T03:33:33.700Z,0
2017-03-25T03:34:33.673Z,0
2017-03-25T03:35:33.652Z,0
2017-03-25T03:36:33.328Z,0
2017-03-25T03:37:33.614Z,0
2017-03-25T03:38:32.968Z,0
2017-03-25T03:39:33.576Z,0
2017-03-25T03:40:33.247Z,0
2017-03-25T03:41:33.539Z,0
2017-03-25T03:42:33.519Z,0
2017-03-25T03:43:33.499Z,0
2017-03-25T03:44:33.163Z,0
2017-03-25T03:45:33.157Z,0
2017-03-25T03:46:33.137Z,0
2017-03-25T03:47:32.797Z,0
2017-03-25T03:48:33.404Z,0
2017-03-25T03:49:33.384Z,0
2017-03-25T03:50:33.360Z,0
2017-03-25T03:51:33.029Z,0
2017-03-25T03:52:33.341Z,0
2017-03-25T03:53:33.322Z,0
2017-03-25T03:54:32.982Z,0
2017-03-25T03:55:32.641Z,0
2017-03-25T03:56:32.622Z,0
2017-03-25T03:57:32.921Z,0
2017-03-25T03:58:33.220Z,0
2017-03-25T03:59:33.184Z,0
2017-03-25T04:00:32.860Z,0
2017-03-25T04:01:33.162Z,0
2017-03-25T04:02:32.507Z,0
2017-03-25T04:03:33.122Z,0
2017-03-25T04:04:33.118Z,0
2017-03-25T04:05:33.070Z,0
2017-03-25T04:06:33.057Z,0
2017-03-25T04:07:32.728Z,0
2017-03-25T04:08:32.706Z,0
2017-03-25T04:09:32.693Z,0
2017-03-25T04:10:32.672Z,0
2017-03-25T04:11:32.963Z,0
2017-03-25T04:12:32.946Z,0
2017-03-25T04:13:32.924Z,0
2017-03-25T04:14:32.902Z,0
2017-03-25T04:15:32.892Z,0
2017-03-25T04:16:32.862Z,0
2017-03-25T04:17:32.857Z,0
2017-03-25T04:18:32.515Z,0
2017-03-25T04:19:32.811Z,0
2017-03-25T04:20:32.791Z,0
2017-03-25T04:21:32.770Z,0
2017-03-25T04:22:32.751Z,0
2017-03-25T04:23:32.727Z,0
2017-03-25T04:24:33.683Z,0
2017-03-25T04:25:32.686Z,0
2017-03-25T04:26:32.679Z,0
2017-03-25T04:27:32.655Z,0
2017-03-25T04:28:32.329Z,0
2017-03-25T04:29:32.611Z,0
2017-03-25T04:30:32.603Z,0
2017-03-25T04:31:32.587Z,0
2017-03-25T04:32:32.247Z,0
2017-03-25T04:33:32.241Z,0
2017-03-25T04:34:31.902Z,0
2017-03-25T04:35:32.502Z,0
2017-03-25T04:36:32.488Z,0
2017-03-25T04:37:32.155Z,0
2017-03-25T04:38:32.445Z,0
2017-03-25T04:39:32.426Z,0
2017-03-25T04:40:32.402Z,0
2017-03-25T04:41:32.068Z,0
2017-03-25T04:42:32.048Z,0
2017-03-25T04:43:32.347Z,0
2017-03-25T04:44:32.011Z,0
2017-03-25T04:45:32.310Z,0
2017-03-25T04:46:31.971Z,0
2017-03-25T04:47:32.263Z,0
2017-03-25T04:48:32.251Z,0
2017-03-25T04:49:32.227Z,0
2017-03-25T04:50:32.206Z,0
2017-03-25T04:51:32.184Z,0
2017-03-25T04:52:32.167Z,0
2017-03-25T04:53:32.153Z,0
2017-03-25T04:54:32.134Z,4
2017-03-25T04:55:32.110Z,4
2017-03-25T04:56:32.085Z,4
2017-03-25T04:57:32.067Z,0
2017-03-25T04:58:31.747Z,4
2017-03-25T04:59:32.031Z,8
2017-03-25T05:00:31.704Z,4
2017-03-25T05:01:31.363Z,8
2017-03-25T05:02:31.701Z,8
2017-03-25T05:03:31.958Z,8
2017-03-25T05:04:31.622Z,12
2017-03-25T05:05:31.920Z,12
2017-03-25T05:06:31.891Z,16
2017-03-25T05:07:31.875Z,20
2017-03-25T05:08:31.863Z,24
2017-03-25T05:09:31.836Z,28
2017-03-25T05:10:31.820Z,32
2017-03-25T05:11:31.799Z,40
2017-03-25T05:12:31.782Z,44
2017-03-25T05:13:31.757Z,48
2017-03-25T05:14:31.745Z,56
2017-03-25T05:15:31.727Z,64
2017-03-25T05:16:31.699Z,72
2017-03-25T05:17:31.679Z,84
2017-03-25T05:18:31.708Z,96
2017-03-25T05:19:31.651Z,108
2017-03-25T05:20:31.624Z,120
2017-03-25T05:21:31.604Z,132
2017-03-25T05:22:31.574Z,144
2017-03-25T05:23:31.562Z,160
2017-03-25T05:24:31.581Z,176
2017-03-25T05:25:31.520Z,192
2017-03-25T05:26:31.503Z,216
2017-03-25T05:27:31.477Z,240
2017-03-25T05:28:32.073Z,260
2017-03-25T05:29:31.444Z,288
2017-03-25T05:30:31.419Z,312
2017-03-25T05:31:31.091Z,344
2017-03-25T05:32:31.389Z,380
2017-03-25T05:33:31.368Z,416
2017-03-25T05:34:31.353Z,444
2017-03-25T05:35:31.321Z,472
2017-03-25T05:36:31.305Z,504
2017-03-25T05:37:31.034Z,532
2017-03-25T05:38:31.264Z,564
2017-03-25T05:39:31.250Z,592
2017-03-25T05:40:31.220Z,616
2017-03-25T05:41:31.209Z,640
2017-03-25T05:42:30.882Z,672
2017-03-25T05:43:31.175Z,708
2017-03-25T05:44:31.166Z,740
2017-03-25T05:45:31.130Z,780
2017-03-25T05:46:30.795Z,812
2017-03-25T05:47:31.088Z,844
2017-03-25T05:48:31.073Z,876
2017-03-25T05:49:30.745Z,904
2017-03-25T05:50:31.030Z,932
2017-03-25T05:51:31.003Z,956
2017-03-25T05:52:30.991Z,984
2017-03-25T05:53:30.975Z,1008
2017-03-25T05:54:30.949Z,1032
2017-03-25T05:55:30.941Z,1056
2017-03-25T05:56:30.906Z,1080
2017-03-25T05:57:30.896Z,1116
2017-03-25T05:58:30.875Z,1156
2017-03-25T05:59:30.536Z,1188
2017-03-25T06:00:30.529Z,1216
2017-03-25T06:01:30.502Z,1244
2017-03-25T06:02:30.793Z,1264
2017-03-25T06:03:30.467Z,1284
2017-03-25T06:04:30.754Z,1304
2017-03-25T06:05:30.417Z,1320
2017-03-25T06:06:30.706Z,1336
2017-03-25T06:07:30.702Z,1352
2017-03-25T06:08:30.362Z,1372
2017-03-25T06:09:30.665Z,1392
2017-03-25T06:10:30.626Z,1416
2017-03-25T06:11:30.618Z,1436
2017-03-25T06:12:30.293Z,1452
2017-03-25T06:13:30.267Z,1476
2017-03-25T06:14:30.562Z,1500
2017-03-25T06:15:30.526Z,1516
2017-03-25T06:16:30.515Z,1528
2017-03-25T06:17:30.496Z,1528
2017-03-25T06:18:30.478Z,1524
2017-03-25T06:19:30.459Z,1516
2017-03-25T06:20:30.124Z,1512
2017-03-25T06:21:30.413Z,1504
2017-03-25T06:22:30.397Z,1504
2017-03-25T06:23:30.377Z,1508
2017-03-25T06:24:30.362Z,1516
2017-03-25T06:25:30.340Z,1512
2017-03-25T06:26:30.320Z,1512
2017-03-25T06:27:30.301Z,1520
2017-03-25T06:28:30.276Z,1528
2017-03-25T06:29:30.269Z,1540
2017-03-25T06:30:29.925Z,1560
2017-03-25T06:31:29.907Z,1580
2017-03-25T06:32:30.200Z,1604
2017-03-25T06:33:30.188Z,1636
2017-03-25T06:34:30.162Z,1660
2017-03-25T06:35:30.149Z,1684
2017-03-25T06:36:30.137Z,1700
2017-03-25T06:37:30.160Z,1716
2017-03-25T06:38:30.094Z,1728
2017-03-25T06:39:30.062Z,1748
2017-03-25T06:40:29.737Z,1780
2017-03-25T06:41:30.022Z,1800
2017-03-25T06:42:29.695Z,1828
2017-03-25T06:43:29.988Z,1868
2017-03-25T06:44:29.658Z,1908
2017-03-25T06:45:29.944Z,1952
2017-03-25T06:46:29.930Z,1992
2017-03-25T06:47:29.608Z,2048
2017-03-25T06:48:29.586Z,2124
2017-03-25T06:49:29.883Z,2200
2017-03-25T06:50:29.873Z,2280
2017-03-25T06:51:29.847Z,2372
2017-03-25T06:52:29.823Z,2444
2017-03-25T06:53:29.808Z,2500
2017-03-25T06:54:29.791Z,2556
2017-03-25T06:55:29.804Z,2604
2017-03-25T06:56:29.734Z,2640
2017-03-25T06:57:29.418Z,2680
2017-03-25T06:58:29.715Z,2720
2017-03-25T06:59:29.386Z,2752
2017-03-25T07:00:29.667Z,2776
2017-03-25T07:01:29.645Z,2804
2017-03-25T07:02:29.628Z,2844
2017-03-25T07:03:29.612Z,2876
2017-03-25T07:04:29.614Z,2908
2017-03-25T07:05:29.567Z,2952
2017-03-25T07:06:29.548Z,3008
2017-03-25T07:07:29.539Z,3076
2017-03-25T07:08:29.513Z,3144
2017-03-25T07:09:29.493Z,3224
2017-03-25T07:10:29.163Z,3304
2017-03-25T07:11:29.460Z,3400
2017-03-25T07:12:29.134Z,3484
2017-03-25T07:13:29.424Z,3556
2017-03-25T07:14:29.411Z,3584
2017-03-25T07:15:29.383Z,3680
2017-03-25T07:16:29.367Z,3748
2017-03-25T07:17:29.343Z,3816
2017-03-25T07:18:29.333Z,3864
2017-03-25T07:19:29.315Z,3936
2017-03-25T07:20:29.294Z,3984
2017-03-25T07:21:29.278Z,4044
2017-03-25T07:22:28.952Z,4116
2017-03-25T07:23:28.931Z,4184
2017-03-25T07:24:28.912Z,4244
2017-03-25T07:25:29.201Z,4304
2017-03-25T07:26:29.186Z,4348
2017-03-25T07:27:29.166Z,4380
2017-03-25T07:28:29.169Z,4388
2017-03-25T07:29:29.129Z,4368
2017-03-25T07:30:28.812Z,4340
2017-03-25T07:31:29.092Z,4320
2017-03-25T07:32:29.078Z,4304
2017-03-25T07:33:28.746Z,4304
2017-03-25T07:34:28.731Z,4312
2017-03-25T07:35:29.027Z,4320
2017-03-25T07:36:29.002Z,4412
2017-03-25T07:37:29.008Z,4436
2017-03-25T07:38:28.969Z,4440
2017-03-25T07:39:28.960Z,4440
2017-03-25T07:40:28.938Z,4400
2017-03-25T07:41:28.926Z,4396
2017-03-25T07:42:28.903Z,4416
2017-03-25T07:43:28.890Z,4396
2017-03-25T07:44:28.885Z,4404
2017-03-25T07:45:28.857Z,4432
2017-03-25T07:46:28.862Z,4480
2017-03-25T07:47:28.820Z,4524
2017-03-25T07:48:28.793Z,4520
2017-03-25T07:49:28.788Z,4392
2017-03-25T07:50:28.768Z,4444
2017-03-25T07:51:28.753Z,4408
2017-03-25T07:52:28.739Z,4384
2017-03-25T07:53:28.728Z,4400
2017-03-25T07:54:28.702Z,4404
2017-03-25T07:55:28.373Z,4404
2017-03-25T07:56:28.664Z,4428
2017-03-25T07:57:28.642Z,4412
2017-03-25T07:58:28.634Z,4428
2017-03-25T07:59:28.617Z,4464
2017-03-25T08:00:28.616Z,4456
2017-03-25T08:01:28.578Z,4484
2017-03-25T08:02:28.563Z,4524
2017-03-25T08:03:28.558Z,4576
2017-03-25T08:04:28.590Z,4632
2017-03-25T08:05:28.510Z,4696
2017-03-25T08:06:28.179Z,4736
2017-03-25T08:07:28.178Z,4800
2017-03-25T08:08:28.485Z,4832
2017-03-25T08:09:28.459Z,4948
2017-03-25T08:10:28.427Z,5092
2017-03-25T08:11:28.413Z,5120
2017-03-25T08:12:28.392Z,5108
2017-03-25T08:13:28.387Z,5116
2017-03-25T08:14:28.374Z,5132
2017-03-25T08:15:28.352Z,5268
2017-03-25T08:16:28.016Z,5596
2017-03-25T08:17:28.319Z,5880
2017-03-25T08:18:28.313Z,9024
2017-03-25T08:19:28.298Z,18720
2017-03-25T08:20:27.948Z,21952
2017-03-25T08:21:28.249Z,22752
2017-03-25T08:22:28.243Z,23424
2017-03-25T08:23:28.229Z,23936
2017-03-25T08:24:27.916Z,19712
2017-03-25T08:25:28.206Z,22816
2017-03-25T08:26:28.195Z,23136
2017-03-25T08:27:28.207Z,24128
2017-03-25T08:28:28.168Z,25632
2017-03-25T08:29:28.164Z,29344
2017-03-25T08:30:27.849Z,30176
2017-03-25T08:31:27.521Z,31488
2017-03-25T08:32:27.806Z,25600
2017-03-25T08:33:27.505Z,22816
2017-03-25T08:34:27.175Z,26976
2017-03-25T08:35:28.093Z,26464
2017-03-25T08:36:28.064Z,18880
2017-03-25T08:37:28.054Z,11268
2017-03-25T08:38:27.736Z,12692
2017-03-25T08:39:28.036Z,24000
2017-03-25T08:40:28.020Z,22112
2017-03-25T08:41:28.019Z,23072
2017-03-25T08:42:27.700Z,18080
2017-03-25T08:43:28.005Z,18944
2017-03-25T08:44:28.961Z,23488
2017-03-25T08:45:27.988Z,25376
2017-03-25T08:46:27.982Z,25440
2017-03-25T08:47:27.971Z,25472
2017-03-25T08:48:27.665Z,35520
2017-03-25T08:49:27.954Z,39744
2017-03-25T08:50:27.944Z,40608
2017-03-25T08:51:27.620Z,32352
2017-03-25T08:52:27.331Z,26560
2017-03-25T08:53:27.925Z,20832
2017-03-25T08:54:27.913Z,19040
2017-03-25T08:55:27.919Z,21728
2017-03-25T08:56:27.898Z,23008
2017-03-25T08:57:27.894Z,20864
2017-03-25T08:58:27.889Z,20352
2017-03-25T08:59:27.967Z,22336
2017-03-25T09:00:27.877Z,25920
2017-03-25T09:01:27.245Z,25632
2017-03-25T09:02:27.861Z,22336
2017-03-25T09:03:27.858Z,24032
2017-03-25T09:04:28.822Z,29024
2017-03-25T09:05:27.841Z,22592
2017-03-25T09:06:27.884Z,19456
2017-03-25T09:07:27.517Z,22496
2017-03-25T09:08:27.819Z,15312
2017-03-25T09:09:27.822Z,11552
2017-03-25T09:10:27.500Z,12904
2017-03-25T09:11:27.798Z,21696
2017-03-25T09:12:27.786Z,25024
2017-03-25T09:13:27.789Z,27104
2017-03-25T09:14:27.470Z,28960
2017-03-25T09:15:27.763Z,29152
2017-03-25T09:16:27.757Z,31040
2017-03-25T09:17:27.753Z,34176
2017-03-25T09:18:27.745Z,26240
2017-03-25T09:19:27.743Z,18144
2017-03-25T09:20:27.411Z,14252
2017-03-25T09:21:27.733Z,13140
2017-03-25T09:22:27.750Z,13384
2017-03-25T09:23:27.709Z,20640
2017-03-25T09:24:27.712Z,30976
2017-03-25T09:25:27.694Z,33888
2017-03-25T09:26:27.686Z,25312
2017-03-25T09:27:27.682Z,15840
2017-03-25T09:28:27.368Z,13872
2017-03-25T09:29:27.871Z,15808
2017-03-25T09:30:27.342Z,16672
2017-03-25T09:31:27.690Z,15112
2017-03-25T09:32:27.639Z,17120
2017-03-25T09:33:27.330Z,17728
2017-03-25T09:34:27.635Z,17600
2017-03-25T09:35:27.312Z,25376
2017-03-25T09:36:28.270Z,17120
2017-03-25T09:37:27.605Z,14236
2017-03-25T09:38:27.607Z,21152
2017-03-25T09:39:27.601Z,19968
2017-03-25T09:40:27.587Z,24512
2017-03-25T09:41:27.584Z,25184
2017-03-25T09:42:27.578Z,18496
2017-03-25T09:43:27.570Z,25248
2017-03-25T09:44:27.564Z,30848
2017-03-25T09:45:27.241Z,24128
2017-03-25T09:46:27.544Z,13300
2017-03-25T09:47:27.229Z,11984
2017-03-25T09:48:27.538Z,13816
2017-03-25T09:49:27.531Z,21536
2017-03-25T09:50:27.513Z,20032
2017-03-25T09:51:27.270Z,14264
2017-03-25T09:52:27.511Z,11372
2017-03-25T09:53:27.503Z,15780
2017-03-25T09:54:27.496Z,24192
2017-03-25T09:55:27.498Z,24832
2017-03-25T09:56:27.495Z,35040
2017-03-25T09:57:27.478Z,35840
2017-03-25T09:58:27.480Z,36512
2017-03-25T09:59:59.233Z,27264
2017-03-25T10:00:27.467Z,17216
2017-03-25T10:01:27.459Z,21088
2017-03-25T10:02:27.449Z,27584
2017-03-25T10:03:27.449Z,34944
2017-03-25T10:04:27.441Z,46336
2017-03-25T10:05:27.436Z,31648
2017-03-25T10:06:27.433Z,18848
2017-03-25T10:07:27.482Z,22336
2017-03-25T10:08:27.523Z,42176
2017-03-25T10:09:27.420Z,44416
2017-03-25T10:10:27.082Z,42656
2017-03-25T10:11:27.102Z,47264
2017-03-25T10:12:27.400Z,43552
2017-03-25T10:13:27.090Z,39200
2017-03-25T10:14:27.397Z,27872
2017-03-25T10:15:27.385Z,18816
2017-03-25T10:16:27.368Z,14380
2017-03-25T10:17:27.061Z,15240
2017-03-25T10:18:27.379Z,24800
2017-03-25T10:19:27.069Z,41888
2017-03-25T10:20:27.070Z,44960
2017-03-25T10:21:27.044Z,44480
2017-03-25T10:22:27.080Z,39936
2017-03-25T10:23:27.346Z,25088
2017-03-25T10:24:27.027Z,37216
2017-03-25T10:25:27.369Z,36896
2017-03-25T10:26:27.016Z,34624
2017-03-25T10:27:27.335Z,33472
2017-03-25T10:28:27.337Z,31904
2017-03-25T10:29:27.324Z,35904
2017-03-25T10:30:27.312Z,41792
2017-03-25T10:31:27.317Z,43392
2017-03-25T10:32:27.298Z,47872
2017-03-25T10:33:27.303Z,51648
2017-03-25T10:34:27.294Z,61696
2017-03-25T10:35:27.285Z,54976
2017-03-25T10:36:26.970Z,55008
2017-03-25T10:37:27.276Z,47424
2017-03-25T10:38:27.014Z,22880
2017-03-25T10:39:26.972Z,19168
2017-03-25T10:40:26.956Z,38624
2017-03-25T10:41:26.997Z,56704
2017-03-25T10:42:26.953Z,58784
2017-03-25T10:43:27.265Z,57440
2017-03-25T10:44:27.267Z,55712
2017-03-25T10:45:27.265Z,46592
2017-03-25T10:46:27.245Z,39904
2017-03-25T10:47:27.244Z,39072
2017-03-25T10:48:26.940Z,41696
2017-03-25T10:49:27.230Z,38080
2017-03-25T10:50:27.240Z,43008
2017-03-25T10:51:26.907Z,55776
2017-03-25T10:52:27.217Z,66688
2017-03-25T10:53:27.215Z,63968
2017-03-25T10:54:26.920Z,55680
2017-03-25T10:55:26.955Z,58048
2017-03-25T10:56:27.203Z,51776
2017-03-25T10:57:26.941Z,52064
2017-03-25T10:58:27.207Z,52352
2017-03-25T10:59:27.197Z,57792
2017-03-25T11:00:26.888Z,56128
2017-03-25T11:01:27.190Z,52160
2017-03-25T11:02:26.880Z,47360
2017-03-25T11:03:26.881Z,56672
2017-03-25T11:04:27.189Z,56608
2017-03-25T11:05:26.869Z,55872
2017-03-25T11:06:27.183Z,53920
2017-03-25T11:07:27.178Z,58720
2017-03-25T11:08:27.189Z,54752
2017-03-25T11:09:27.192Z,47712
2017-03-25T11:10:27.173Z,45312
2017-03-25T11:11:27.166Z,38720
2017-03-25T11:12:27.169Z,36480
2017-03-25T11:13:27.182Z,38912
2017-03-25T11:14:27.181Z,32608
2017-03-25T11:15:27.165Z,25280
2017-03-25T11:16:26.844Z,26912
2017-03-25T11:17:27.155Z,25248
2017-03-25T11:18:26.848Z,28416
2017-03-25T11:19:26.848Z,29120
2017-03-25T11:20:27.149Z,28064
2017-03-25T11:21:27.146Z,31616
2017-03-25T11:22:27.150Z,36320
2017-03-25T11:23:26.883Z,44256
2017-03-25T11:24:27.150Z,58464
2017-03-25T11:25:27.129Z,69824
2017-03-25T11:26:27.133Z,66272
2017-03-25T11:27:27.126Z,62400
2017-03-25T11:28:27.131Z,44448
2017-03-25T11:29:27.320Z,37696
2017-03-25T11:30:27.124Z,41216
2017-03-25T11:31:27.128Z,39744
2017-03-25T11:32:27.110Z,34688
2017-03-25T11:33:27.119Z,35552
2017-03-25T11:34:27.109Z,48256
2017-03-25T11:35:26.790Z,55168
2017-03-25T11:36:27.126Z,55360
2017-03-25T11:37:26.784Z,65888
2017-03-25T11:38:27.095Z,64736
2017-03-25T11:39:27.092Z,57184
2017-03-25T11:40:26.795Z,61216
2017-03-25T11:41:27.081Z,57440
2017-03-25T11:42:27.084Z,56064
2017-03-25T11:43:27.084Z,58112
2017-03-25T11:44:26.831Z,60032
2017-03-25T11:45:27.098Z,59264
2017-03-25T11:46:27.085Z,48576
2017-03-25T11:47:26.760Z,52992
2017-03-25T11:48:27.078Z,67200
2017-03-25T11:49:26.769Z,73280
2017-03-25T11:50:27.075Z,70080
2017-03-25T11:51:26.771Z,69984
2017-03-25T11:52:27.078Z,58400
2017-03-25T11:53:27.130Z,57376
2017-03-25T11:54:27.079Z,71424
2017-03-25T11:55:27.126Z,76864
2017-03-25T11:56:26.761Z,82144
2017-03-25T11:57:27.074Z,87872
2017-03-25T11:58:26.769Z,91616
2017-03-25T11:59:26.769Z,90944
2017-03-25T12:00:27.118Z,90752
2017-03-25T12:01:27.074Z,89568
2017-03-25T12:02:27.088Z,86368
2017-03-25T12:03:26.684Z,82976
2017-03-25T12:04:27.089Z,81248
2017-03-25T12:05:26.758Z,78592
2017-03-25T12:06:26.773Z,77344
2017-03-25T12:07:26.824Z,75936
2017-03-25T12:08:27.031Z,76352
2017-03-25T12:09:27.081Z,71840
2017-03-25T12:10:27.098Z,70368
2017-03-25T12:11:27.101Z,67488
2017-03-25T12:12:27.087Z,65568
2017-03-25T12:13:27.102Z,67136
2017-03-25T12:14:27.094Z,68384
2017-03-25T12:15:27.106Z,71680
2017-03-25T12:16:27.096Z,73472
2017-03-25T12:17:26.793Z,77600
2017-03-25T12:18:27.155Z,80512
2017-03-25T12:19:27.116Z,84128
2017-03-25T12:20:26.800Z,86592
2017-03-25T12:21:26.798Z,89632
2017-03-25T12:22:27.127Z,92384
2017-03-25T12:23:26.802Z,94464
2017-03-25T12:24:27.181Z,94016
2017-03-25T12:25:26.814Z,94816
2017-03-25T12:26:27.143Z,94304
2017-03-25T12:27:27.156Z,95488
2017-03-25T12:28:27.165Z,95232
2017-03-25T12:29:27.155Z,93216
2017-03-25T12:30:27.149Z,91840
2017-03-25T12:31:27.190Z,88384
2017-03-25T12:32:27.186Z,87424
2017-03-25T12:33:27.166Z,84064
2017-03-25T12:34:27.172Z,80128
2017-03-25T12:35:27.153Z,78944
2017-03-25T12:36:26.831Z,76864
2017-03-25T12:37:27.141Z,74496
2017-03-25T12:38:27.150Z,72192
2017-03-25T12:39:27.350Z,71296
2017-03-25T12:40:26.828Z,71104
2017-03-25T12:41:27.142Z,72096
2017-03-25T12:42:26.878Z,71648
2017-03-25T12:43:26.858Z,71648
2017-03-25T12:44:27.159Z,73504
2017-03-25T12:45:27.171Z,75776
2017-03-25T12:46:27.160Z,75328
2017-03-25T12:47:26.862Z,74656
2017-03-25T12:48:27.203Z,75584
2017-03-25T12:49:26.867Z,78208
2017-03-25T12:50:27.182Z,80160
2017-03-25T12:51:27.195Z,80256
2017-03-25T12:52:27.195Z,81792
2017-03-25T12:53:27.175Z,83744
2017-03-25T12:54:27.231Z,85088
2017-03-25T12:55:27.176Z,85984
2017-03-25T12:56:27.197Z,86880
2017-03-25T12:57:28.146Z,89504
2017-03-25T12:58:27.202Z,89216
2017-03-25T12:59:27.181Z,86432
2017-03-25T13:00:27.189Z,87680
2017-03-25T13:01:26.877Z,87936
2017-03-25T13:02:26.872Z,86336
2017-03-25T13:03:26.878Z,86752
2017-03-25T13:04:27.200Z,83264
2017-03-25T13:05:27.213Z,82336
2017-03-25T13:06:26.586Z,79584
2017-03-25T13:07:27.194Z,78176
2017-03-25T13:08:27.210Z,76512
2017-03-25T13:09:27.195Z,73312
2017-03-25T13:10:27.186Z,70592
2017-03-25T13:11:27.201Z,67936
2017-03-25T13:12:27.201Z,66848
2017-03-25T13:13:27.220Z,70432
2017-03-25T13:14:27.217Z,74432
2017-03-25T13:15:26.893Z,78752
2017-03-25T13:16:27.201Z,84000
2017-03-25T13:17:26.890Z,86048
2017-03-25T13:18:27.205Z,84128
2017-03-25T13:19:26.902Z,80192
2017-03-25T13:20:26.902Z,74080
2017-03-25T13:21:27.208Z,69632
2017-03-25T13:22:27.214Z,66976
2017-03-25T13:23:26.589Z,67808
2017-03-25T13:24:26.902Z,69664
2017-03-25T13:25:27.219Z,70048
2017-03-25T13:26:27.213Z,68480
2017-03-25T13:27:26.901Z,66112
2017-03-25T13:28:27.217Z,64192
2017-03-25T13:29:27.681Z,63232
2017-03-25T13:30:27.230Z,64160
2017-03-25T13:31:26.905Z,66944
2017-03-25T13:32:27.226Z,70656
2017-03-25T13:33:26.914Z,73152
2017-03-25T13:34:27.231Z,75360
2017-03-25T13:35:27.223Z,73952
2017-03-25T13:36:26.917Z,71744
2017-03-25T13:37:27.236Z,69088
2017-03-25T13:38:28.209Z,68832
2017-03-25T13:39:26.930Z,68736
2017-03-25T13:40:26.906Z,71168